Time;durP1;ratioP1;P1;durP2;ratioP2;P2;SDS_P1;SDS_P2;PMS_P1;PMS_P2;Temp;Humidity;BMP_temperature;BMP_pressure;BME280_temperature;BME280_humidity;BME280_pressure;Samples;Min_cycle;Max_cycle;Signal;HPM_P1;HPM_P2
2023/01/31 00:00:28;;;;;;;8.03;4.03;;;15.70;54.20;16.60;101633.00;;;;5032648;28;20234;-46
2023/01/31 00:02:54;;;;;;;6.20;3.87;;;15.70;54.20;16.60;101635.00;;;;5037196;28;20254;-47
2023/01/31 00:05:20;;;;;;;6.50;3.33;;;15.70;54.20;16.60;101636.00;;;;5034638;28;20186;-46
2023/01/31 00:07:46;;;;;;;7.57;3.90;;;15.70;54.20;16.60;101655.00;;;;5029166;28;20168;-47
2023/01/31 00:10:12;;;;;;;7.27;3.50;;;15.60;54.30;16.60;101649.00;;;;5029551;28;20191;-46
2023/01/31 00:12:38;;;;;;;7.30;3.80;;;15.60;54.20;16.60;101650.00;;;;5027787;28;20209;-46
2023/01/31 00:15:04;;;;;;;7.30;3.43;;;15.60;54.20;16.50;101642.00;;;;5029245;28;20174;-48
2023/01/31 00:17:30;;;;;;;7.53;3.57;;;15.60;54.20;16.50;101581.00;;;;5029130;28;20580;-47
2023/01/31 00:19:56;;;;;;;6.67;3.27;;;15.60;54.10;16.50;101645.00;;;;5029069;28;20202;-47
2023/01/31 00:22:21;;;;;;;7.47;3.40;;;15.60;54.20;16.50;101652.00;;;;5029708;28;20254;-54
2023/01/31 00:24:47;;;;;;;8.43;3.93;;;15.60;54.10;16.50;101643.00;;;;5030692;28;20175;-47
2023/01/31 00:27:13;;;;;;;6.57;3.57;;;15.60;54.10;16.50;101655.00;;;;5029337;28;20202;-47
2023/01/31 00:29:39;;;;;;;8.10;4.03;;;15.60;53.90;16.50;101660.00;;;;5029000;28;20193;-47
2023/01/31 00:32:04;;;;;;;7.93;3.67;;;15.60;53.90;16.50;101649.00;;;;5028677;28;20183;-47
2023/01/31 00:34:30;;;;;;;7.53;4.00;;;15.50;53.70;16.50;101636.00;;;;5029215;28;20175;-47
2023/01/31 00:36:57;;;;;;;7.77;3.87;;;15.60;53.90;16.40;101641.00;;;;5029012;28;20299;-45
2023/01/31 00:39:23;;;;;;;8.17;3.80;;;15.60;53.90;16.40;101657.00;;;;5031185;28;20170;-47
2023/01/31 00:41:48;;;;;;;7.07;3.57;;;15.50;53.80;16.40;101649.00;;;;5032417;28;20541;-47
2023/01/31 00:44:14;;;;;;;7.97;3.90;;;15.50;53.70;16.30;101640.00;;;;5033121;28;20186;-47
2023/01/31 00:46:40;;;;;;;7.83;3.67;;;15.50;53.70;16.30;101644.00;;;;5033291;28;20705;-47
2023/01/31 00:49:05;;;;;;;9.00;4.07;;;15.50;53.60;16.30;101644.00;;;;5041213;28;20167;-47
2023/01/31 00:51:31;;;;;;;7.27;3.80;;;15.50;53.50;16.30;101643.00;;;;5041860;28;20202;-47
2023/01/31 00:53:57;;;;;;;6.93;3.47;;;15.40;53.40;16.30;101638.00;;;;5043695;28;20183;-47
2023/01/31 00:56:23;;;;;;;8.50;3.90;;;15.40;53.50;16.30;101636.00;;;;5036896;28;20179;-47
2023/01/31 00:58:49;;;;;;;8.27;4.00;;;15.40;53.50;16.30;101642.00;;;;5033913;28;20742;-47
2023/01/31 01:01:26;;;;;;;5.63;3.33;;;15.40;53.50;16.30;101634.00;;;;5032196;28;20294;-47
2023/01/31 01:03:52;;;;;;;9.23;3.97;;;15.40;53.60;16.20;101636.00;;;;5032487;28;20382;-47
2023/01/31 01:06:18;;;;;;;8.43;3.77;;;15.40;53.50;16.20;101647.00;;;;5032500;28;20171;-45
2023/01/31 01:08:44;;;;;;;7.60;3.73;;;15.40;53.50;16.20;101644.00;;;;5036976;28;20350;-47
2023/01/31 01:11:16;;;;;;;8.70;3.77;;;15.30;53.50;16.20;101638.00;;;;5034896;28;20317;-47
2023/01/31 01:13:42;;;;;;;10.10;4.27;;;15.40;53.60;16.20;101637.00;;;;5031283;28;20213;-47
2023/01/31 01:16:14;;;;;;;7.87;3.70;;;15.30;53.50;16.20;101637.00;;;;5031196;28;20179;-47
2023/01/31 01:18:40;;;;;;;7.50;3.80;;;15.30;53.50;16.20;101650.00;;;;5032236;28;20190;-48
2023/01/31 01:21:08;;;;;;;8.83;3.87;;;15.30;53.50;16.20;101644.00;;;;5031645;28;20632;-47
2023/01/31 01:23:35;;;;;;;7.93;4.03;;;15.30;53.60;16.10;101651.00;;;;5032050;28;20226;-48
2023/01/31 01:26:01;;;;;;;9.53;4.07;;;15.30;53.50;16.10;101641.00;;;;5032298;28;20175;-47
2023/01/31 01:28:26;;;;;;;6.37;3.40;;;15.20;53.40;16.10;101645.00;;;;5031840;28;20233;-47
2023/01/31 01:30:52;;;;;;;6.97;3.57;;;15.20;53.50;16.10;101645.00;;;;5032071;28;20205;-47
2023/01/31 01:33:18;;;;;;;8.50;3.83;;;15.30;53.60;16.10;101652.00;;;;5031709;28;20652;-47
2023/01/31 01:35:43;;;;;;;7.27;3.83;;;15.20;53.50;16.10;101652.00;;;;5032280;28;20675;-47
2023/01/31 01:38:09;;;;;;;5.90;3.47;;;15.20;53.40;16.00;101650.00;;;;5031892;28;20222;-48
2023/01/31 01:40:36;;;;;;;8.07;3.80;;;15.10;53.40;16.00;101645.00;;;;5031986;28;20203;-47
2023/01/31 01:43:02;;;;;;;6.50;3.53;;;15.20;53.50;16.00;101643.00;;;;5031104;28;20651;-47
2023/01/31 01:45:28;;;;;;;9.17;3.90;;;15.20;53.40;16.00;101641.00;;;;5031435;28;20225;-47
2023/01/31 01:47:56;;;;;;;7.43;3.50;;;15.10;53.40;16.00;101632.00;;;;5030307;28;20669;-47
2023/01/31 01:50:29;;;;;;;7.43;3.60;;;15.10;53.40;16.00;101622.00;;;;5030212;28;20210;-47
2023/01/31 01:53:02;;;;;;;6.03;3.50;;;15.10;53.40;16.00;101629.00;;;;5030119;28;20170;-47
2023/01/31 01:55:28;;;;;;;7.47;3.33;;;15.10;53.40;16.00;101631.00;;;;5030834;28;20254;-48
2023/01/31 01:58:05;;;;;;;5.30;3.10;;;15.10;53.50;16.00;101636.00;;;;5031524;28;20671;-48
2023/01/31 02:00:31;;;;;;;7.17;3.60;;;15.00;53.50;15.90;101631.00;;;;5030018;28;20281;-47
2023/01/31 02:02:58;;;;;;;6.83;3.30;;;15.00;53.40;15.90;101633.00;;;;5013168;28;20616;-47
2023/01/31 02:05:31;;;;;;;6.87;3.47;;;15.10;53.50;15.90;101635.00;;;;5031241;28;20186;-47
2023/01/31 02:07:57;;;;;;;9.07;3.63;;;15.10;53.50;15.90;101636.00;;;;5030467;28;20190;-47
2023/01/31 02:11:05;;;;;;;7.27;3.40;;;15.00;53.50;15.90;101645.00;;;;5029841;28;20190;-48
2023/01/31 02:13:30;;;;;;;6.37;3.33;;;15.00;53.50;15.90;101631.00;;;;5029366;28;20210;-46
2023/01/31 02:15:56;;;;;;;7.63;3.40;;;15.00;53.60;15.90;101637.00;;;;5030031;28;20171;-48
2023/01/31 02:18:23;;;;;;;7.63;3.23;;;15.00;53.50;15.90;101639.00;;;;5030371;28;20167;-46
2023/01/31 02:21:22;;;;;;;7.93;3.70;;;15.00;53.50;15.90;101574.00;;;;5029618;28;20837;-46
2023/01/31 02:24:24;;;;;;;7.50;3.40;;;15.00;53.60;15.90;101554.00;;;;5030925;28;20598;-48
2023/01/31 02:27:27;;;;;;;6.43;3.50;;;14.90;53.60;15.80;101632.00;;;;5036141;28;20178;-47
2023/01/31 02:30:37;;;;;;;6.43;3.20;;;14.90;53.60;15.80;101637.00;;;;5030611;28;20166;-45
2023/01/31 02:33:20;;;;;;;6.90;3.57;;;14.90;53.60;15.80;101640.00;;;;5029671;28;20167;-46
2023/01/31 02:35:51;;;;;;;7.07;3.53;;;14.90;53.70;15.70;101644.00;;;;5029446;28;20171;-47
2023/01/31 02:38:39;;;;;;;6.87;3.50;;;14.90;53.70;15.70;101641.00;;;;5030654;28;20244;-50
2023/01/31 02:41:36;;;;;;;7.67;3.30;;;14.90;53.60;15.70;101640.00;;;;5028993;28;20207;-46
2023/01/31 02:48:01;;;;;;;5.27;3.03;;;14.90;53.80;15.70;101649.00;;;;5030971;28;20249;-47
2023/01/31 02:50:37;;;;;;;6.37;3.10;;;14.80;53.70;15.70;101653.00;;;;5030315;28;20214;-46
2023/01/31 02:53:08;;;;;;;5.70;3.37;;;14.80;53.70;15.70;101642.00;;;;5029026;28;20216;-46
2023/01/31 02:58:50;;;;;;;5.90;3.10;;;14.80;53.80;15.60;101637.00;;;;5025393;28;20260;-47
2023/01/31 03:01:20;;;;;;;4.20;3.00;;;14.80;53.80;15.60;101648.00;;;;5028179;28;20199;-47
2023/01/31 03:03:46;;;;;;;6.97;3.40;;;14.80;53.90;15.70;101649.00;;;;5013085;28;20659;-46
2023/01/31 03:06:23;;;;;;;5.03;3.03;;;14.80;53.80;15.60;101639.00;;;;5030466;28;20186;-46
2023/01/31 03:09:01;;;;;;;5.97;3.27;;;14.80;53.90;15.60;101630.00;;;;5030518;28;20163;-48
2023/01/31 03:11:45;;;;;;;5.60;3.37;;;14.80;53.90;15.60;101634.00;;;;5028924;28;20190;-46
2023/01/31 03:14:55;;;;;;;6.63;3.30;;;14.70;53.80;15.60;101603.00;;;;5030526;28;20163;-47
2023/01/31 03:17:52;;;;;;;5.17;3.00;;;14.70;53.90;15.60;101622.00;;;;5028498;28;20241;-46
2023/01/31 03:20:43;;;;;;;6.23;3.20;;;14.70;53.80;15.60;101616.00;;;;5028481;28;20227;-47
2023/01/31 03:23:18;;;;;;;6.03;3.07;;;14.70;53.90;15.60;101599.00;;;;5028521;28;20187;-47
2023/01/31 03:25:43;;;;;;;5.20;3.17;;;14.70;54.00;15.50;101601.00;;;;5028620;28;20170;-46
2023/01/31 03:28:13;;;;;;;4.93;2.97;;;14.70;53.90;15.50;101612.00;;;;5028775;28;20177;-46
2023/01/31 03:30:58;;;;;;;5.13;3.03;;;14.70;53.90;15.50;101600.00;;;;5028275;28;20668;-47
2023/01/31 03:33:36;;;;;;;5.63;3.00;;;14.70;53.90;15.50;101607.00;;;;5028357;28;20156;-46
2023/01/31 03:36:20;;;;;;;6.33;3.23;;;14.70;54.00;15.50;101608.00;;;;5028172;28;20194;-47
2023/01/31 03:38:51;;;;;;;6.00;3.07;;;14.60;53.80;15.50;101603.00;;;;5028786;28;20159;-47
2023/01/31 03:41:28;;;;;;;6.10;3.00;;;14.60;53.80;15.50;101603.00;;;;5029229;28;20202;-52
2023/01/31 03:44:01;;;;;;;6.77;3.40;;;14.60;53.80;15.50;101615.00;;;;5028200;28;20266;-47
2023/01/31 03:46:38;;;;;;;4.83;3.20;;;14.60;53.90;15.50;101616.00;;;;5031309;28;20173;-48
2023/01/31 03:49:07;;;;;;;4.20;2.80;;;14.60;53.80;15.50;101620.00;;;;5036690;28;20185;-48
2023/01/31 03:51:33;;;;;;;5.90;3.30;;;14.60;53.90;15.50;101620.00;;;;5028295;28;20206;-47
2023/01/31 03:54:03;;;;;;;5.97;3.20;;;14.60;53.90;15.50;101616.00;;;;5012396;28;20199;-47
2023/01/31 03:56:41;;;;;;;6.60;3.43;;;14.60;53.90;15.40;101602.00;;;;5028412;28;20158;-47
2023/01/31 03:59:16;;;;;;;4.43;2.90;;;14.50;54.40;15.40;101608.00;;;;5028630;28;20366;-47
2023/01/31 04:01:47;;;;;;;4.80;2.90;;;14.50;53.80;15.40;101609.00;;;;5028368;28;20198;-46
2023/01/31 04:04:31;;;;;;;5.50;2.90;;;14.50;53.80;15.40;101614.00;;;;5029315;28;20162;-46
2023/01/31 04:06:59;;;;;;;5.17;2.90;;;14.50;53.70;15.40;101603.00;;;;5028020;28;20196;-47
2023/01/31 04:09:24;;;;;;;4.50;2.80;;;14.50;54.00;15.40;101587.00;;;;5028190;28;20590;-53
2023/01/31 04:11:51;;;;;;;5.70;3.03;;;14.50;54.10;15.40;101598.00;;;;5027544;28;20282;-46
2023/01/31 04:14:17;;;;;;;5.97;3.43;;;14.50;54.20;15.40;101592.00;;;;5031172;28;20174;-48
2023/01/31 04:16:43;;;;;;;6.77;3.30;;;14.50;54.10;15.40;101592.00;;;;5034623;28;20167;-46
2023/01/31 04:19:08;;;;;;;5.77;3.00;;;14.50;54.10;15.40;101592.00;;;;5034687;28;20213;-47
2023/01/31 04:21:34;;;;;;;5.07;2.90;;;14.50;54.20;15.40;101597.00;;;;5032727;28;20210;-46
2023/01/31 04:24:00;;;;;;;6.10;3.17;;;14.40;54.30;15.40;101582.00;;;;5033048;28;20166;-46
2023/01/31 04:26:25;;;;;;;5.47;3.13;;;14.40;54.20;15.40;101590.00;;;;5033076;28;20166;-47
2023/01/31 04:28:51;;;;;;;6.13;3.37;;;14.40;54.20;15.30;101584.00;;;;5032879;28;20221;-46
2023/01/31 04:31:17;;;;;;;5.67;3.03;;;14.40;54.80;15.10;101595.00;;;;5032913;28;20526;-46
2023/01/31 04:33:43;;;;;;;7.23;3.53;;;14.40;54.60;15.30;101575.00;;;;5033369;28;20175;-46
2023/01/31 04:36:09;;;;;;;5.43;2.90;;;14.40;55.20;15.30;101571.00;;;;5033158;28;20178;-47
2023/01/31 04:38:34;;;;;;;6.00;3.23;;;14.40;54.80;15.30;101575.00;;;;5033129;28;20484;-47
2023/01/31 04:41:00;;;;;;;6.03;3.10;;;14.40;54.70;15.30;101583.00;;;;5032966;28;20235;-51
2023/01/31 04:43:26;;;;;;;8.00;3.10;;;14.40;54.80;15.30;101588.00;;;;5032584;28;20167;-47
2023/01/31 04:45:51;;;;;;;10.50;3.33;;;14.40;55.00;15.30;101586.00;;;;5032864;28;20167;-47
2023/01/31 04:48:17;;;;;;;5.67;3.10;;;14.40;54.90;15.30;101568.00;;;;5033473;28;20163;-46
2023/01/31 04:50:43;;;;;;;6.10;3.17;;;14.40;54.80;15.30;101556.00;;;;5033177;28;20201;-47
2023/01/31 04:53:09;;;;;;;7.40;3.23;;;14.40;54.70;15.30;101565.00;;;;5032785;28;20171;-47
2023/01/31 04:55:34;;;;;;;6.50;3.13;;;14.40;54.60;15.30;101564.00;;;;5033469;28;20186;-48
2023/01/31 04:58:00;;;;;;;5.50;3.20;;;14.40;54.60;15.30;101508.00;;;;5033080;28;20167;-46
2023/01/31 05:00:26;;;;;;;5.00;3.00;;;14.40;54.50;15.30;101568.00;;;;5041018;28;20202;-50
2023/01/31 05:02:52;;;;;;;5.10;2.90;;;14.40;54.30;15.30;101559.00;;;;5042299;28;20210;-46
2023/01/31 05:05:19;;;;;;;6.20;3.17;;;14.40;54.30;15.20;101571.00;;;;5042172;28;20221;-48
2023/01/31 05:07:44;;;;;;;5.53;2.83;;;14.40;54.30;15.20;101570.00;;;;5032864;28;20178;-47
2023/01/31 05:10:10;;;;;;;4.47;2.97;;;14.40;54.20;15.20;101564.00;;;;5036007;28;20282;-47
2023/01/31 05:12:36;;;;;;;4.67;3.03;;;14.30;54.20;15.20;101564.00;;;;5044414;28;20175;-47
2023/01/31 05:15:02;;;;;;;6.33;3.10;;;14.30;54.20;15.20;101565.00;;;;5031544;28;20538;-46
2023/01/31 05:17:29;;;;;;;8.27;3.30;;;14.30;54.20;15.20;101560.00;;;;5033139;28;20175;-46
2023/01/31 05:19:56;;;;;;;4.73;3.10;;;14.30;54.20;15.20;101566.00;;;;5032265;28;20183;-46
2023/01/31 05:22:21;;;;;;;5.77;3.03;;;14.30;54.20;15.20;101557.00;;;;5019165;28;20207;-46
2023/01/31 05:24:48;;;;;;;6.57;2.97;;;14.20;54.10;15.20;101554.00;;;;5033210;28;20306;-47
2023/01/31 05:27:14;;;;;;;6.37;3.17;;;14.30;54.20;15.20;101550.00;;;;5040323;28;20229;-47
2023/01/31 05:29:39;;;;;;;6.33;3.40;;;14.30;54.20;15.10;101534.00;;;;5034832;28;20567;-47
2023/01/31 05:32:05;;;;;;;4.73;2.90;;;14.30;54.20;15.10;101560.00;;;;5032608;28;20163;-47
2023/01/31 05:34:32;;;;;;;5.23;3.10;;;14.30;54.20;15.10;101553.00;;;;5032576;28;20206;-47
2023/01/31 05:36:58;;;;;;;7.67;3.67;;;14.20;54.10;15.10;101558.00;;;;5032650;28;20193;-46
2023/01/31 05:39:24;;;;;;;5.87;3.40;;;14.30;54.20;15.10;101547.00;;;;5031635;28;20174;-47
2023/01/31 05:41:49;;;;;;;7.07;3.30;;;14.20;54.20;15.10;101562.00;;;;5030601;28;20211;-47
2023/01/31 05:44:15;;;;;;;7.33;3.27;;;14.20;54.10;15.10;101548.00;;;;5030805;28;20171;-47
2023/01/31 05:46:41;;;;;;;7.40;3.40;;;14.20;54.10;15.10;101564.00;;;;5032201;28;20221;-46
2023/01/31 05:49:07;;;;;;;7.10;3.90;;;14.20;54.10;15.10;101553.00;;;;5031512;28;20175;-46
2023/01/31 05:51:33;;;;;;;7.07;3.30;;;14.20;54.10;15.10;101548.00;;;;5031941;28;20243;-46
2023/01/31 05:53:58;;;;;;;10.23;3.47;;;14.20;54.10;15.00;101552.00;;;;5032052;28;20182;-46
2023/01/31 05:56:24;;;;;;;10.70;3.90;;;14.20;54.10;15.10;101550.00;;;;5031554;28;20202;-46
2023/01/31 05:58:50;;;;;;;9.97;4.40;;;14.20;54.10;15.00;101548.00;;;;5031233;28;20707;-47
2023/01/31 06:01:20;;;;;;;10.27;4.10;;;14.10;54.00;15.00;101547.00;;;;5031320;28;20209;-47
2023/01/31 06:03:46;;;;;;;13.03;4.03;;;14.20;54.20;14.80;101538.00;;;;5032160;28;20161;-46
2023/01/31 06:06:12;;;;;;;12.83;4.10;;;14.20;54.20;15.00;101531.00;;;;5031015;28;20242;-46
2023/01/31 06:08:38;;;;;;;8.83;3.80;;;14.10;54.20;15.00;101531.00;;;;5030979;28;20254;-50
2023/01/31 06:11:04;;;;;;;10.00;3.70;;;14.10;54.60;15.00;101526.00;;;;5032812;28;20198;-46
2023/01/31 06:13:31;;;;;;;10.27;3.93;;;14.10;54.50;15.00;101535.00;;;;5031928;28;20218;-46
2023/01/31 06:15:57;;;;;;;11.60;3.80;;;14.10;54.40;15.00;101526.00;;;;5031383;28;20225;-46
2023/01/31 06:18:23;;;;;;;6.87;3.87;;;14.10;54.70;15.00;101476.00;;;;5030849;28;20175;-46
2023/01/31 06:20:49;;;;;;;9.57;4.10;;;14.00;54.80;15.00;101528.00;;;;5030986;28;20253;-46
2023/01/31 06:23:15;;;;;;;15.53;4.30;;;14.10;55.00;15.00;101518.00;;;;5031072;28;20594;-46
2023/01/31 06:25:40;;;;;;;8.43;3.50;;;14.10;55.00;15.00;101522.00;;;;5031347;28;20167;-47
2023/01/31 06:28:06;;;;;;;9.83;3.50;;;14.20;55.10;15.00;101519.00;;;;5030969;28;20202;-46
2023/01/31 06:30:32;;;;;;;9.33;3.60;;;14.20;55.00;15.10;101516.00;;;;5030680;28;20253;-46
2023/01/31 06:33:01;;;;;;;8.00;3.90;;;14.30;55.00;15.10;101520.00;;;;5030965;28;20196;-46
2023/01/31 06:35:27;;;;;;;9.50;3.60;;;14.40;55.00;15.20;101522.00;;;;5031134;28;20170;-47
2023/01/31 06:37:54;;;;;;;6.57;3.37;;;14.50;55.00;15.20;101525.00;;;;5032512;28;20167;-47
2023/01/31 06:40:20;;;;;;;7.07;3.10;;;14.60;55.00;15.30;101520.00;;;;5032792;28;20183;-47
2023/01/31 06:42:45;;;;;;;7.00;3.70;;;14.60;55.00;15.40;101519.00;;;;5030496;28;20477;-47
2023/01/31 06:45:11;;;;;;;6.33;3.40;;;14.70;55.00;15.50;101516.00;;;;5031292;28;20558;-47
2023/01/31 06:47:37;;;;;;;6.90;2.80;;;14.80;55.00;15.50;101529.00;;;;5031442;28;20178;-47
2023/01/31 06:50:03;;;;;;;5.07;3.10;;;14.80;54.90;15.60;101534.00;;;;5030639;28;20190;-46
2023/01/31 06:52:29;;;;;;;7.73;3.40;;;14.90;54.90;15.70;101521.00;;;;5029583;28;20178;-46
2023/01/31 06:54:54;;;;;;;3.93;2.90;;;15.00;54.90;15.70;101528.00;;;;5031025;28;20213;-46
2023/01/31 06:57:20;;;;;;;6.70;3.30;;;15.00;54.80;15.80;101524.00;;;;5030638;28;20182;-46
2023/01/31 06:59:46;;;;;;;5.90;3.53;;;15.10;54.90;15.80;101522.00;;;;5030205;28;20163;-46
2023/01/31 07:02:11;;;;;;;6.30;3.30;;;15.10;54.90;15.90;101524.00;;;;5030426;28;20620;-46
2023/01/31 07:04:37;;;;;;;5.63;3.20;;;15.20;54.90;15.90;101524.00;;;;5030314;28;20191;-47
2023/01/31 07:07:03;;;;;;;4.97;2.90;;;15.10;54.80;15.90;101532.00;;;;5028919;28;20179;-46
2023/01/31 07:09:29;;;;;;;3.97;2.80;;;15.20;54.90;16.00;101535.00;;;;5029854;28;20179;-46
2023/01/31 07:11:54;;;;;;;5.17;2.70;;;15.20;54.90;16.00;101525.00;;;;5030064;28;20205;-47
2023/01/31 07:14:20;;;;;;;4.13;2.70;;;15.20;54.90;16.00;101547.00;;;;5030150;28;20163;-46
2023/01/31 07:16:46;;;;;;;5.37;2.83;;;15.30;55.00;16.10;101538.00;;;;5030496;28;20167;-46
2023/01/31 07:19:11;;;;;;;4.83;3.03;;;15.30;55.00;16.10;101541.00;;;;5029708;28;20174;-47
2023/01/31 07:21:37;;;;;;;4.40;2.60;;;15.30;55.00;16.10;101543.00;;;;5029781;28;20704;-46
2023/01/31 07:24:03;;;;;;;5.23;2.77;;;15.40;55.10;16.10;101534.00;;;;5030799;28;20175;-47
2023/01/31 07:26:29;;;;;;;5.50;2.90;;;15.40;55.10;16.20;101545.00;;;;5032509;28;20281;-46
2023/01/31 07:28:55;;;;;;;5.47;3.13;;;15.40;55.10;16.20;101547.00;;;;5028831;28;20183;-47
2023/01/31 07:31:21;;;;;;;3.63;2.60;;;15.40;55.10;16.20;101533.00;;;;5030381;28;20603;-46
2023/01/31 07:33:46;;;;;;;4.90;2.90;;;15.40;55.10;16.20;101535.00;;;;5030494;28;20167;-45
2023/01/31 07:36:14;;;;;;;4.40;2.80;;;15.40;55.10;16.20;101537.00;;;;5030295;28;20232;-47
2023/01/31 07:38:39;;;;;;;5.33;3.27;;;15.40;55.10;16.20;101522.00;;;;5029843;28;20190;-46
2023/01/31 07:41:07;;;;;;;4.40;3.10;;;15.50;55.10;16.30;101512.00;;;;5028663;28;20695;-46
2023/01/31 07:43:33;;;;;;;5.30;2.70;;;15.40;55.00;16.30;101524.00;;;;5030324;28;20589;-46
2023/01/31 07:45:58;;;;;;;3.57;2.53;;;15.50;55.10;16.30;101516.00;;;;5031028;28;20194;-46
2023/01/31 07:48:24;;;;;;;4.60;2.87;;;15.50;55.10;16.30;101508.00;;;;5030514;28;20171;-46
2023/01/31 07:50:51;;;;;;;4.90;2.70;;;15.50;55.10;16.30;101516.00;;;;5029750;28;20598;-46
2023/01/31 07:53:18;;;;;;;4.77;2.87;;;15.50;55.10;16.30;101522.00;;;;5029687;28;20682;-47
2023/01/31 07:55:47;;;;;;;4.07;2.80;;;15.50;55.10;16.30;101525.00;;;;5028517;28;20171;-47
2023/01/31 07:58:14;;;;;;;3.67;2.50;;;15.50;55.10;16.30;101517.00;;;;5028416;28;20252;-46
2023/01/31 08:03:33;;;;;;;3.93;2.47;;;15.60;55.10;16.40;101520.00;;;;5029613;28;20590;-46
2023/01/31 08:06:10;;;;;;;4.23;2.80;;;15.60;55.10;16.40;101518.00;;;;5029444;28;20162;-48
2023/01/31 08:08:36;;;;;;;4.10;2.60;;;15.60;55.00;16.40;101522.00;;;;5030463;28;20178;-46
2023/01/31 08:11:03;;;;;;;3.93;2.70;;;15.60;55.00;16.40;101511.00;;;;5037537;28;20197;-47
2023/01/31 08:13:30;;;;;;;3.43;2.40;;;15.60;55.00;16.40;101511.00;;;;5033158;28;20171;-46
2023/01/31 08:15:56;;;;;;;3.33;2.50;;;15.70;55.10;16.40;101527.00;;;;5029647;28;20726;-48
2023/01/31 08:18:22;;;;;;;3.87;2.73;;;15.70;55.10;16.40;101521.00;;;;5029313;28;20179;-47
2023/01/31 08:20:48;;;;;;;2.63;2.27;;;15.60;55.00;16.40;101520.00;;;;5029506;28;20199;-47
2023/01/31 08:23:14;;;;;;;3.67;2.60;;;15.70;55.10;16.40;101511.00;;;;5040552;28;20270;-48
2023/01/31 08:25:39;;;;;;;4.53;2.50;;;15.70;55.10;16.50;101497.00;;;;5029487;28;20163;-46
2023/01/31 08:28:05;;;;;;;2.90;2.27;;;15.70;55.10;16.50;101502.00;;;;5029374;28;20179;-46
2023/01/31 08:30:31;;;;;;;3.67;2.30;;;15.70;55.10;16.50;101503.00;;;;5029014;28;20187;-46
2023/01/31 08:32:57;;;;;;;3.13;2.40;;;15.70;55.10;16.50;101498.00;;;;5029178;28;20167;-46
2023/01/31 08:35:25;;;;;;;3.00;2.30;;;15.70;55.10;16.50;101501.00;;;;5029412;28;20537;-47
2023/01/31 08:37:51;;;;;;;3.10;2.60;;;15.70;55.00;16.50;101498.00;;;;5025848;28;20252;-47
2023/01/31 08:40:17;;;;;;;3.53;2.57;;;15.70;55.00;16.50;101490.00;;;;5024682;28;20753;-47
2023/01/31 08:42:43;;;;;;;3.97;2.67;;;15.70;55.00;16.50;101480.00;;;;5009107;28;20196;-46
2023/01/31 08:45:09;;;;;;;3.97;2.53;;;15.70;55.20;16.50;101483.00;;;;5008596;28;20247;-47
2023/01/31 08:47:35;;;;;;;3.17;2.33;;;15.80;55.30;16.50;101474.00;;;;5017095;28;20187;-46
2023/01/31 08:50:01;;;;;;;5.20;2.47;;;15.80;55.30;16.50;101486.00;;;;5022635;28;20195;-46
2023/01/31 08:52:27;;;;;;;3.67;2.27;;;15.80;55.40;16.50;101500.00;;;;5016465;28;20839;-45
2023/01/31 08:54:53;;;;;;;11.20;2.83;;;15.80;55.40;16.60;101487.00;;;;5027234;28;20209;-47
2023/01/31 08:57:19;;;;;;;7.07;2.53;;;15.80;55.90;16.60;101483.00;;;;5028223;28;20229;-46
2023/01/31 08:59:45;;;;;;;3.63;2.30;;;15.80;55.90;16.60;101483.00;;;;5028189;28;20175;-46
2023/01/31 09:02:12;;;;;;;7.57;2.43;;;15.80;56.00;16.60;101493.00;;;;5031800;28;20689;-47
2023/01/31 09:04:38;;;;;;;4.70;2.50;;;15.90;56.00;16.70;101488.00;;;;5032557;28;20163;-47
2023/01/31 09:07:04;;;;;;;5.27;2.53;;;15.90;55.90;16.70;101479.00;;;;5033009;28;20163;-47
2023/01/31 09:09:30;;;;;;;4.37;2.47;;;16.00;55.90;16.80;101472.00;;;;5032720;28;20229;-45
2023/01/31 09:11:55;;;;;;;2.87;2.43;;;16.10;55.90;16.90;101479.00;;;;5032413;28;20191;-47
2023/01/31 09:14:21;;;;;;;4.57;2.37;;;16.10;55.70;17.00;101450.00;;;;5038687;28;20187;-48
2023/01/31 09:16:47;;;;;;;2.93;2.30;;;16.20;55.80;17.00;101456.00;;;;5041839;28;20179;-47
2023/01/31 09:19:12;;;;;;;3.37;2.13;;;16.30;55.80;17.10;101456.00;;;;5039527;28;20174;-46
2023/01/31 09:21:38;;;;;;;5.33;2.37;;;16.40;55.70;17.20;101447.00;;;;5031101;28;20878;-46
2023/01/31 09:24:04;;;;;;;4.17;2.27;;;16.50;55.70;17.30;101459.00;;;;5031434;28;20693;-47
2023/01/31 09:26:30;;;;;;;3.97;2.20;;;16.60;55.80;17.40;101445.00;;;;5031498;28;20172;-46
2023/01/31 09:28:57;;;;;;;2.90;2.13;;;16.60;55.80;17.50;101446.00;;;;5032052;28;20878;-47
2023/01/31 09:31:23;;;;;;;2.97;2.40;;;16.80;56.00;17.60;101454.00;;;;5031447;28;20195;-46
2023/01/31 09:33:49;;;;;;;4.53;2.30;;;16.80;56.60;17.60;101458.00;;;;5032180;28;20671;-47
2023/01/31 09:36:17;;;;;;;3.53;2.17;;;16.90;56.60;17.70;101452.00;;;;5031914;28;20252;-47
2023/01/31 09:38:43;;;;;;;2.97;2.10;;;17.00;56.40;17.80;101442.00;;;;5032402;28;20207;-47
2023/01/31 09:41:31;;;;;;;3.63;2.37;;;17.10;56.30;17.80;101456.00;;;;5031811;28;20235;-47
2023/01/31 09:44:24;;;;;;;4.17;2.27;;;17.10;56.70;17.90;101448.00;;;;5027522;28;20227;-45
2023/01/31 09:47:14;;;;;;;3.57;2.40;;;17.10;56.00;17.90;101450.00;;;;5028033;28;20194;-47
2023/01/31 09:50:17;;;;;;;2.93;2.10;;;17.20;56.00;17.80;101444.00;;;;5021973;28;20866;-46
2023/01/31 09:52:43;;;;;;;3.40;1.90;;;17.20;56.00;18.00;101441.00;;;;5014978;28;20645;-46
2023/01/31 09:55:22;;;;;;;3.20;2.30;;;17.20;55.90;18.00;101440.00;;;;5027172;28;20181;-46
2023/01/31 09:58:14;;;;;;;3.40;2.53;;;17.20;55.90;18.10;101430.00;;;;5033594;28;20209;-47
2023/01/31 10:00:47;;;;;;;5.50;2.17;;;17.30;56.00;18.10;101440.00;;;;5034592;28;20287;-46
2023/01/31 10:03:34;;;;;;;6.27;2.60;;;17.30;56.00;18.10;101432.00;;;;5029988;28;20166;-46
2023/01/31 10:06:22;;;;;;;3.73;2.10;;;17.30;55.90;18.10;101431.00;;;;5030305;28;20164;-46
2023/01/31 10:08:54;;;;;;;3.57;2.10;;;17.30;56.10;18.10;101426.00;;;;5029953;28;20158;-46
2023/01/31 10:11:40;;;;;;;6.03;2.50;;;17.30;56.00;18.10;101429.00;;;;5027150;28;20185;-48
2023/01/31 10:14:32;;;;;;;4.43;2.50;;;17.40;56.10;18.10;101416.00;;;;5031631;28;20157;-47
2023/01/31 10:17:10;;;;;;;5.30;2.20;;;17.30;56.00;18.10;101412.00;;;;5049573;28;20163;-47
2023/01/31 10:19:52;;;;;;;3.73;2.10;;;17.40;56.00;18.10;101412.00;;;;5016878;28;20214;-47
2023/01/31 10:22:25;;;;;;;3.30;2.30;;;17.40;56.00;18.20;101407.00;;;;5021724;28;20201;-48
2023/01/31 10:24:58;;;;;;;4.67;2.30;;;17.40;55.90;18.20;101407.00;;;;5028160;28;20184;-46
2023/01/31 10:27:42;;;;;;;3.77;2.30;;;17.40;55.90;18.20;101397.00;;;;5021024;28;20540;-46
2023/01/31 10:30:27;;;;;;;4.27;2.03;;;17.50;56.00;18.20;101387.00;;;;5030953;28;20191;-48
2023/01/31 10:33:15;;;;;;;2.80;2.00;;;17.40;55.90;18.20;101394.00;;;;5031190;28;20156;-46
2023/01/31 10:35:41;;;;;;;3.03;2.10;;;17.50;55.90;18.20;101390.00;;;;5029266;28;20177;-47
2023/01/31 10:38:25;;;;;;;2.70;1.93;;;17.50;56.10;18.20;101395.00;;;;5029738;28;20164;-46
2023/01/31 10:40:57;;;;;;;3.60;2.27;;;17.50;56.00;18.20;101385.00;;;;5029196;28;20202;-46
2023/01/31 10:43:47;;;;;;;2.33;1.80;;;17.50;55.80;18.30;101377.00;;;;5028964;28;20657;-46
2023/01/31 10:46:13;;;;;;;2.40;1.87;;;17.50;55.70;18.30;101375.00;;;;5029011;28;20175;-48
2023/01/31 10:48:39;;;;;;;3.30;2.10;;;17.60;55.70;18.30;101357.00;;;;5029117;28;20540;-46
2023/01/31 10:51:12;;;;;;;3.47;1.90;;;17.50;55.50;18.30;101343.00;;;;5030906;28;20418;-47
2023/01/31 10:54:38;;;;;;;3.60;2.10;;;17.60;55.60;18.30;101360.00;;;;5037434;28;20241;-47
2023/01/31 10:57:03;;;;;;;4.37;2.17;;;17.60;55.50;18.30;101345.00;;;;5039728;28;20209;-48
2023/01/31 10:59:32;;;;;;;2.97;1.90;;;17.60;55.40;18.30;101345.00;;;;5033308;28;20636;-47
2023/01/31 11:02:01;;;;;;;3.73;2.20;;;17.60;55.40;18.40;101346.00;;;;5029856;28;20200;-47
2023/01/31 11:04:34;;;;;;;3.83;2.10;;;17.60;55.40;18.20;101327.00;;;;5030550;28;20232;-46
2023/01/31 11:07:00;;;;;;;3.43;1.90;;;17.60;55.40;18.40;101339.00;;;;5028794;28;20161;-49
2023/01/31 11:09:42;;;;;;;3.33;2.30;;;17.60;55.40;18.40;101313.00;;;;5030195;28;20510;-47